Time;durP1;ratioP1;P1;durP2;ratioP2;P2;SDS_P1;SDS_P2;PMS_P1;PMS_P2;Temp;Humidity;BMP_temperature;BMP_pressure;BME280_temperature;BME280_humidity;BME280_pressure;Samples;Min_cycle;Max_cycle;Signal;HPM_P1;HPM_P2
2021/12/06 00:01:42;;;;;;;33.97;18.30;;;1.50;87.80;;;;;;5070901;28;20039;-68
2021/12/06 00:04:16;;;;;;;37.70;21.27;;;1.50;87.90;;;;;;5069766;28;20028;-68
2021/12/06 00:06:45;;;;;;;40.90;21.70;;;1.50;87.80;;;;;;5071230;28;20033;-69
2021/12/06 00:09:16;;;;;;;37.95;20.98;;;1.60;87.80;;;;;;5074618;28;20430;-68
2021/12/06 00:11:42;;;;;;;41.13;21.83;;;1.60;87.80;;;;;;5074512;28;20021;-68
2021/12/06 00:14:09;;;;;;;38.97;20.90;;;1.60;87.90;;;;;;5073305;28;20089;-67
2021/12/06 00:16:35;;;;;;;39.53;21.42;;;1.60;87.90;;;;;;5074457;28;20432;-67
2021/12/06 00:19:01;;;;;;;38.20;20.95;;;1.60;87.90;;;;;;5074414;28;20111;-68
2021/12/06 00:21:27;;;;;;;38.58;21.25;;;1.60;87.90;;;;;;5074277;28;20092;-69
2021/12/06 00:23:53;;;;;;;39.08;20.08;;;1.60;88.10;;;;;;5074340;28;20071;-68
2021/12/06 00:26:19;;;;;;;36.53;19.33;;;1.50;88.10;;;;;;5074191;28;20107;-67
2021/12/06 00:28:46;;;;;;;38.75;20.83;;;1.60;88.20;;;;;;5074529;28;20111;-69
2021/12/06 00:31:14;;;;;;;40.30;20.92;;;1.60;88.10;;;;;;5074124;28;20119;-69
2021/12/06 00:33:41;;;;;;;40.30;20.92;;;1.60;88.20;;;;;;5074015;28;20467;-68
2021/12/06 00:36:15;;;;;;;37.75;20.15;;;1.60;88.10;;;;;;5074028;28;20028;-68
2021/12/06 00:38:43;;;;;;;36.80;19.50;;;1.60;88.20;;;;;;5074014;28;20045;-68
2021/12/06 00:41:09;;;;;;;40.72;21.25;;;1.60;88.20;;;;;;5074045;28;20028;-68
2021/12/06 00:43:35;;;;;;;39.60;21.60;;;1.60;88.10;;;;;;5073922;28;20387;-67
2021/12/06 00:46:01;;;;;;;41.17;22.00;;;1.60;88.10;;;;;;5073941;28;20037;-68
2021/12/06 00:48:27;;;;;;;41.80;21.40;;;1.60;88.00;;;;;;5073748;28;20332;-68
2021/12/06 00:50:53;;;;;;;39.45;20.88;;;1.60;88.10;;;;;;5073723;28;20033;-68
2021/12/06 00:53:18;;;;;;;44.75;23.00;;;1.60;88.20;;;;;;5073713;28;20017;-67
2021/12/06 00:55:44;;;;;;;36.95;19.83;;;1.50;88.20;;;;;;5073723;28;20033;-68
2021/12/06 00:58:10;;;;;;;39.75;21.10;;;1.50;88.30;;;;;;5073725;28;20021;-67
2021/12/06 01:00:43;;;;;;;36.40;19.33;;;1.50;88.50;;;;;;5073681;28;20118;-68
2021/12/06 01:03:16;;;;;;;39.75;20.65;;;1.50;88.50;;;;;;5073758;28;20107;-67
2021/12/06 01:05:43;;;;;;;40.95;20.95;;;1.50;88.50;;;;;;5073341;28;20049;-69
2021/12/06 01:08:09;;;;;;;38.97;20.45;;;1.50;88.50;;;;;;5073610;28;20099;-68
2021/12/06 01:10:35;;;;;;;39.95;20.13;;;1.50;88.70;;;;;;5073623;28;20467;-69
2021/12/06 01:13:02;;;;;;;40.65;20.35;;;1.50;88.70;;;;;;5073426;28;20033;-68
2021/12/06 01:15:32;;;;;;;37.33;19.65;;;1.50;88.90;;;;;;5073376;28;20020;-68
2021/12/06 01:18:01;;;;;;;42.03;21.05;;;1.50;88.80;;;;;;5071797;28;20024;-67
2021/12/06 01:20:30;;;;;;;42.38;20.20;;;1.50;88.80;;;;;;5071541;28;20395;-67
2021/12/06 01:23:11;;;;;;;42.17;20.90;;;1.50;88.70;;;;;;5073716;28;20055;-68
2021/12/06 01:34:05;;;;;;;41.78;20.95;;;1.50;88.70;;;;;;5073007;28;20778;-68
2021/12/06 01:39:11;;;;;;;40.88;20.13;;;1.50;89.00;;;;;;5073244;28;20044;-68
2021/12/06 01:41:44;;;;;;;41.33;20.17;;;1.50;89.00;;;;;;5072771;28;20017;-67
2021/12/06 01:44:24;;;;;;;;;;;1.50;89.10;;;;;;5071943;28;20135;-67
2021/12/06 01:46:58;;;;;;;39.90;19.75;;;1.40;89.10;;;;;;5072717;28;19930;-67
2021/12/06 01:49:30;;;;;;;41.15;19.10;;;1.50;89.30;;;;;;5072646;28;20028;-68
2021/12/06 01:51:58;;;;;;;40.55;20.25;;;1.50;89.40;;;;;;5072523;28;20025;-68
2021/12/06 01:54:24;;;;;;;38.67;19.77;;;1.50;89.40;;;;;;5072541;28;20029;-68
2021/12/06 01:56:51;;;;;;;41.50;19.88;;;1.50;89.50;;;;;;5072652;28;20150;-69
2021/12/06 01:59:18;;;;;;;40.00;18.55;;;1.50;89.50;;;;;;5072466;28;20532;-68
2021/12/06 02:01:44;;;;;;;39.60;18.77;;;1.50;89.70;;;;;;5072411;28;20032;-67
2021/12/06 02:04:11;;;;;;;42.92;20.83;;;1.50;89.70;;;;;;5072301;28;20040;-68
2021/12/06 02:06:37;;;;;;;41.75;20.55;;;1.50;89.80;;;;;;5072155;28;20070;-68
2021/12/06 02:09:07;;;;;;;38.13;19.88;;;1.50;89.80;;;;;;5072211;28;20028;-67
2021/12/06 02:11:35;;;;;;;40.72;20.38;;;1.40;89.90;;;;;;5072216;28;20029;-67
2021/12/06 02:14:31;;;;;;;36.85;19.65;;;1.40;89.90;;;;;;5072425;28;20017;-67
2021/12/06 02:19:40;;;;;;;34.80;17.50;;;1.40;90.00;;;;;;5072083;28;20027;-67
2021/12/06 02:22:09;;;;;;;36.50;17.42;;;1.40;90.00;;;;;;5072187;28;20059;-68
2021/12/06 02:24:37;;;;;;;38.90;19.17;;;1.40;90.00;;;;;;5072110;28;20048;-68
2021/12/06 02:27:05;;;;;;;38.03;18.90;;;1.50;90.00;;;;;;5071967;28;20032;-67
2021/12/06 02:29:31;;;;;;;44.03;20.83;;;1.50;90.00;;;;;;5071963;28;20028;-68
2021/12/06 02:31:56;;;;;;;37.22;19.10;;;1.50;90.00;;;;;;5071828;28;20056;-67
2021/12/06 02:34:22;;;;;;;42.45;20.67;;;1.50;90.00;;;;;;5070557;28;20470;-68
2021/12/06 02:36:48;;;;;;;40.50;19.38;;;1.50;90.00;;;;;;5072057;28;20118;-67
2021/12/06 02:39:20;;;;;;;40.75;18.33;;;1.50;90.00;;;;;;5072050;28;20328;-67
2021/12/06 02:41:48;;;;;;;;;;;1.50;90.00;;;;;;5072178;28;20024;-67
2021/12/06 02:44:15;;;;;;;39.08;18.58;;;1.50;90.10;;;;;;5071678;28;19912;-67
2021/12/06 02:46:41;;;;;;;40.30;19.08;;;1.50;90.10;;;;;;5071752;28;20020;-67
2021/12/06 02:49:07;;;;;;;36.85;18.35;;;1.50;90.10;;;;;;5071528;28;20074;-67
2021/12/06 02:51:33;;;;;;;42.03;20.98;;;1.50;90.10;;;;;;5071378;28;20484;-68
2021/12/06 02:53:58;;;;;;;39.92;19.67;;;1.50;90.10;;;;;;5071546;28;20028;-67
2021/12/06 02:59:00;;;;;;;38.75;19.05;;;1.50;90.10;;;;;;5071462;28;20567;-68
2021/12/06 03:01:34;;;;;;;41.47;20.30;;;1.50;90.20;;;;;;5071447;28;20025;-67
2021/12/06 03:04:03;;;;;;;39.22;18.80;;;1.50;90.20;;;;;;5071508;28;20043;-67
2021/12/06 03:06:30;;;;;;;42.83;20.75;;;1.60;90.20;;;;;;5071263;28;20036;-67
2021/12/06 03:09:05;;;;;;;45.85;21.85;;;1.60;90.20;;;;;;5071401;28;20071;-67
2021/12/06 03:11:39;;;;;;;45.38;21.77;;;1.60;90.20;;;;;;5071285;28;20033;-68
2021/12/06 03:14:07;;;;;;;47.72;20.58;;;1.60;90.20;;;;;;5071327;28;20048;-68
2021/12/06 03:16:32;;;;;;;48.55;23.75;;;1.60;90.10;;;;;;5070014;28;20103;-68
2021/12/06 03:18:58;;;;;;;46.65;22.60;;;1.60;90.10;;;;;;5071350;28;20104;-67
2021/12/06 03:21:25;;;;;;;47.55;22.58;;;1.60;90.10;;;;;;5071269;28;20024;-68
2021/12/06 03:23:53;;;;;;;44.17;20.90;;;1.60;90.20;;;;;;5071250;28;20445;-68
2021/12/06 03:26:19;;;;;;;43.22;20.85;;;1.60;90.20;;;;;;5071102;28;20178;-67
2021/12/06 03:28:46;;;;;;;46.25;23.08;;;1.60;90.20;;;;;;5071415;28;20107;-68
2021/12/06 03:31:27;;;;;;;46.83;23.10;;;1.60;90.30;;;;;;5071066;28;20476;-67
2021/12/06 03:33:55;;;;;;;49.65;22.95;;;1.60;90.30;;;;;;5070961;28;20107;-67
2021/12/06 03:36:23;;;;;;;51.38;23.73;;;1.60;90.30;;;;;;5071141;28;20024;-68
2021/12/06 03:38:51;;;;;;;47.80;22.60;;;1.60;90.40;;;;;;5071095;28;20456;-68
2021/12/06 03:41:18;;;;;;;48.88;22.63;;;1.60;90.40;;;;;;5071096;28;20111;-68
2021/12/06 03:43:44;;;;;;;52.47;24.65;;;1.60;90.40;;;;;;5074929;28;20510;-67
2021/12/06 03:46:13;;;;;;;51.78;23.73;;;1.70;90.40;;;;;;5075112;28;20123;-67
2021/12/06 03:48:39;;;;;;;50.03;22.65;;;1.60;90.40;;;;;;5075052;28;20474;-67
2021/12/06 03:51:05;;;;;;;45.17;21.38;;;1.60;90.40;;;;;;5074872;28;20029;-68
2021/12/06 03:53:31;;;;;;;46.63;21.67;;;1.60;90.50;;;;;;5074957;28;20112;-67
2021/12/06 03:55:57;;;;;;;43.25;20.48;;;1.60;90.60;;;;;;5074880;28;20456;-68
2021/12/06 03:58:23;;;;;;;45.33;20.55;;;1.60;90.60;;;;;;5074738;28;20023;-68
2021/12/06 04:00:49;;;;;;;46.50;21.20;;;1.60;90.60;;;;;;5074747;28;20059;-67
2021/12/06 04:03:16;;;;;;;43.28;20.17;;;1.60;90.60;;;;;;5074982;28;20056;-68
2021/12/06 04:05:42;;;;;;;41.55;20.27;;;1.70;90.60;;;;;;5074548;28;20124;-68
2021/12/06 04:08:08;;;;;;;43.17;20.67;;;1.70;90.70;;;;;;5074937;28;20140;-67
2021/12/06 04:10:34;;;;;;;44.33;20.10;;;1.70;90.60;;;;;;5073450;28;20028;-68
2021/12/06 04:13:00;;;;;;;46.88;22.20;;;1.70;90.70;;;;;;5074459;28;20075;-68
2021/12/06 04:15:29;;;;;;;44.00;20.98;;;1.70;90.70;;;;;;5074382;28;20016;-67
2021/12/06 04:17:57;;;;;;;46.80;20.58;;;1.70;90.60;;;;;;5074995;28;20395;-68
2021/12/06 04:20:22;;;;;;;42.45;20.55;;;1.80;90.60;;;;;;5074658;28;20407;-68
2021/12/06 04:22:48;;;;;;;44.90;20.80;;;1.80;90.60;;;;;;5073170;28;20040;-68
2021/12/06 04:25:16;;;;;;;42.47;20.00;;;1.80;90.60;;;;;;5074318;28;20032;-68
2021/12/06 04:27:42;;;;;;;44.53;20.33;;;1.80;90.60;;;;;;5074419;28;20500;-68
2021/12/06 04:30:10;;;;;;;47.67;21.80;;;1.80;90.60;;;;;;5074143;28;20028;-68
2021/12/06 04:32:36;;;;;;;46.90;22.33;;;1.80;90.60;;;;;;5072916;28;20036;-68
2021/12/06 04:35:03;;;;;;;49.63;22.52;;;1.80;90.70;;;;;;5072790;28;20029;-68
2021/12/06 04:37:29;;;;;;;44.88;20.65;;;1.80;90.70;;;;;;5074064;28;20356;-66
2021/12/06 04:39:55;;;;;;;49.28;21.40;;;1.80;90.70;;;;;;5074031;28;20021;-67
2021/12/06 04:42:21;;;;;;;44.45;21.17;;;1.80;90.70;;;;;;5073867;28;20378;-69
2021/12/06 04:44:48;;;;;;;42.92;20.70;;;1.80;90.70;;;;;;5074358;28;20020;-68
2021/12/06 04:47:13;;;;;;;42.00;20.67;;;1.80;90.80;;;;;;5073681;28;20033;-68
2021/12/06 04:49:39;;;;;;;42.00;20.50;;;1.80;90.80;;;;;;5072564;28;20036;-68
2021/12/06 04:52:10;;;;;;;44.10;21.25;;;1.80;90.80;;;;;;5073649;28;20024;-68
2021/12/06 04:54:39;;;;;;;43.78;19.75;;;1.80;90.80;;;;;;5072543;28;20379;-68
2021/12/06 04:57:30;;;;;;;44.85;21.70;;;1.80;90.90;;;;;;5072396;28;20021;-68
2021/12/06 05:00:06;;;;;;;49.22;22.80;;;1.90;90.90;;;;;;5073954;28;20032;-68
2021/12/06 05:02:36;;;;;;;52.05;24.95;;;1.90;90.90;;;;;;5073690;28;20028;-69
2021/12/06 05:05:25;;;;;;;51.00;25.05;;;1.90;91.00;;;;;;5073414;28;20037;-68
2021/12/06 05:07:56;;;;;;;49.13;24.45;;;1.90;91.00;;;;;;5073382;28;20482;-68
2021/12/06 05:10:22;;;;;;;48.38;22.27;;;1.90;91.00;;;;;;5073399;28;20067;-67
2021/12/06 05:12:50;;;;;;;48.10;22.65;;;1.90;91.00;;;;;;5072058;28;20052;-68
2021/12/06 05:15:17;;;;;;;43.22;21.33;;;1.90;91.10;;;;;;5071996;28;20028;-68
2021/12/06 05:17:44;;;;;;;47.75;21.98;;;1.90;91.10;;;;;;5073215;28;20043;-67
2021/12/06 05:20:12;;;;;;;50.30;23.10;;;1.90;91.10;;;;;;5073160;28;20017;-68
2021/12/06 05:22:38;;;;;;;45.58;22.65;;;1.90;91.20;;;;;;5071866;28;20036;-67
2021/12/06 05:25:05;;;;;;;50.08;23.13;;;1.90;91.10;;;;;;5073163;28;20036;-69
2021/12/06 05:27:31;;;;;;;47.22;22.33;;;1.90;91.20;;;;;;5073102;28;20039;-67
2021/12/06 05:30:01;;;;;;;47.45;22.70;;;1.90;91.10;;;;;;5073118;28;20028;-68
2021/12/06 05:32:30;;;;;;;52.78;24.38;;;2.00;91.20;;;;;;5072571;28;20033;-67
2021/12/06 05:35:02;;;;;;;48.53;23.00;;;2.00;91.20;;;;;;5073200;28;20016;-68
2021/12/06 05:37:29;;;;;;;45.83;22.27;;;2.00;91.20;;;;;;5072949;28;20016;-69
2021/12/06 05:39:55;;;;;;;43.78;21.30;;;2.00;91.20;;;;;;5072806;28;20284;-69
2021/12/06 05:42:22;;;;;;;45.83;22.35;;;2.00;91.30;;;;;;5072580;28;20082;-67
2021/12/06 05:44:49;;;;;;;44.72;20.98;;;2.00;91.30;;;;;;5072308;28;20020;-68
2021/12/06 05:47:15;;;;;;;44.22;21.42;;;2.00;91.30;;;;;;5072309;28;20494;-68
2021/12/06 05:49:42;;;;;;;44.42;20.77;;;2.00;91.40;;;;;;5072556;28;20028;-68
2021/12/06 05:52:07;;;;;;;41.80;21.50;;;2.00;91.30;;;;;;5072432;28;20028;-68
2021/12/06 05:54:33;;;;;;;44.08;21.40;;;2.00;91.40;;;;;;5071473;28;20533;-68
2021/12/06 05:57:00;;;;;;;47.05;22.67;;;2.00;91.40;;;;;;5072709;28;20036;-68
2021/12/06 05:59:26;;;;;;;43.63;21.98;;;2.00;91.60;;;;;;5072730;28;20025;-67
2021/12/06 06:01:54;;;;;;;42.30;21.20;;;2.10;91.50;;;;;;5072483;28;20438;-68
2021/12/06 06:04:21;;;;;;;41.30;20.52;;;2.10;91.50;;;;;;5072613;28;20061;-67
2021/12/06 06:06:47;;;;;;;46.13;22.00;;;2.10;91.50;;;;;;5072312;28;20048;-68
2021/12/06 06:09:12;;;;;;;44.17;21.13;;;2.10;91.50;;;;;;5072099;28;20032;-68
2021/12/06 06:11:40;;;;;;;42.47;21.30;;;2.10;91.50;;;;;;5072004;28;20028;-69
2021/12/06 06:14:07;;;;;;;48.05;23.70;;;2.10;91.50;;;;;;5071825;28;20020;-69
2021/12/06 06:16:36;;;;;;;43.25;21.75;;;2.20;91.60;;;;;;5071561;28;20032;-69
2021/12/06 06:19:04;;;;;;;41.75;20.27;;;2.20;91.60;;;;;;5072267;28;20028;-69
2021/12/06 06:21:30;;;;;;;44.42;21.40;;;2.20;91.60;;;;;;5071928;28;20047;-69
2021/12/06 06:23:55;;;;;;;46.42;23.15;;;2.20;91.60;;;;;;5072216;28;20420;-68
2021/12/06 06:26:22;;;;;;;43.38;20.90;;;2.30;91.60;;;;;;5072184;28;20032;-68
2021/12/06 06:28:48;;;;;;;43.22;21.55;;;2.20;91.60;;;;;;5072133;28;20082;-68
2021/12/06 06:31:14;;;;;;;43.40;22.42;;;2.30;91.70;;;;;;5071783;28;20033;-69
2021/12/06 06:33:39;;;;;;;42.92;21.55;;;2.30;91.80;;;;;;5071759;28;20025;-68
2021/12/06 06:36:05;;;;;;;42.50;21.17;;;2.30;91.70;;;;;;5071575;28;20162;-67
2021/12/06 06:38:31;;;;;;;43.85;21.80;;;2.30;91.70;;;;;;5071625;28;20460;-67
2021/12/06 06:40:58;;;;;;;41.63;21.38;;;2.30;91.70;;;;;;5071697;28;20035;-67
2021/12/06 06:43:23;;;;;;;42.72;21.35;;;2.30;91.70;;;;;;5071602;28;20095;-69
2021/12/06 06:45:49;;;;;;;46.83;23.30;;;2.30;91.80;;;;;;5071691;28;20103;-68
2021/12/06 06:48:15;;;;;;;39.85;21.58;;;2.30;91.80;;;;;;5071422;28;20095;-68
2021/12/06 06:50:41;;;;;;;45.40;24.15;;;2.40;91.80;;;;;;5071615;28;20100;-68
2021/12/06 06:53:07;;;;;;;43.45;21.50;;;2.40;91.90;;;;;;5071481;28;20429;-67
2021/12/06 06:55:33;;;;;;;46.08;23.70;;;2.40;91.90;;;;;;5071398;28;20051;-68
2021/12/06 06:57:59;;;;;;;45.53;23.60;;;2.40;91.90;;;;;;5071521;28;20029;-68
2021/12/06 07:00:31;;;;;;;45.13;23.13;;;2.40;91.80;;;;;;5071427;28;20016;-68
2021/12/06 07:02:57;;;;;;;41.35;22.23;;;2.50;91.90;;;;;;5071149;28;20047;-68
2021/12/06 07:05:24;;;;;;;43.13;22.30;;;2.50;91.90;;;;;;5070948;28;20040;-68
2021/12/06 07:07:49;;;;;;;46.55;24.20;;;2.50;91.80;;;;;;5071323;28;20360;-68
2021/12/06 07:10:15;;;;;;;46.50;23.77;;;2.60;91.90;;;;;;5064046;28;20095;-70
2021/12/06 07:12:46;;;;;;;47.17;24.15;;;2.60;91.80;;;;;;5068847;28;20028;-69
2021/12/06 07:15:18;;;;;;;46.05;24.63;;;2.60;91.80;;;;;;5067116;28;20016;-69
2021/12/06 07:17:44;;;;;;;46.77;23.60;;;2.60;91.80;;;;;;5062841;28;20082;-69
2021/12/06 07:20:12;;;;;;;47.30;23.40;;;2.60;91.70;;;;;;5071046;28;20025;-69
2021/12/06 07:22:38;;;;;;;42.95;22.38;;;2.60;91.70;;;;;;5068013;28;20032;-69
2021/12/06 07:25:05;;;;;;;43.75;22.98;;;2.60;91.80;;;;;;5071103;28;20024;-69
2021/12/06 07:27:31;;;;;;;44.17;23.05;;;2.70;91.80;;;;;;5071034;28;20033;-68
2021/12/06 07:29:57;;;;;;;45.67;24.05;;;2.70;91.80;;;;;;5071247;28;20028;-69
2021/12/06 07:32:23;;;;;;;42.63;21.95;;;2.70;91.80;;;;;;5071056;28;20383;-67
2021/12/06 07:34:51;;;;;;;45.55;23.08;;;2.70;91.80;;;;;;5070911;28;20471;-68
2021/12/06 07:37:16;;;;;;;39.72;20.77;;;2.70;91.70;;;;;;5066295;28;20021;-67
2021/12/06 07:39:42;;;;;;;36.15;19.45;;;2.70;91.70;;;;;;5070666;28;20466;-69
2021/12/06 07:42:12;;;;;;;34.35;18.10;;;2.70;91.70;;;;;;5067389;28;20037;-68
2021/12/06 07:44:39;;;;;;;35.70;18.38;;;2.70;91.80;;;;;;5059481;28;20016;-69
2021/12/06 07:47:04;;;;;;;34.78;18.00;;;2.80;91.80;;;;;;5070043;28;20395;-68
2021/12/06 07:49:30;;;;;;;31.92;16.45;;;2.80;91.90;;;;;;5051091;28;20025;-69
2021/12/06 07:51:56;;;;;;;33.80;17.42;;;2.80;91.90;;;;;;5051020;28;20028;-67
2021/12/06 07:54:22;;;;;;;32.72;17.48;;;2.90;91.90;;;;;;5056512;28;20017;-67
2021/12/06 07:56:48;;;;;;;38.33;19.60;;;2.90;91.90;;;;;;5069775;28;20021;-68
2021/12/06 07:59:14;;;;;;;33.38;18.60;;;2.90;91.90;;;;;;5069583;28;20154;-69
2021/12/06 08:01:41;;;;;;;33.47;17.73;;;3.00;91.90;;;;;;5070793;28;20108;-68
2021/12/06 08:04:08;;;;;;;35.13;18.95;;;3.00;91.90;;;;;;5051026;28;20029;-68
2021/12/06 08:06:34;;;;;;;35.05;17.90;;;3.00;91.80;;;;;;5050884;28;20146;-68
2021/12/06 08:09:00;;;;;;;32.00;17.33;;;3.10;91.90;;;;;;5051018;28;20028;-68
2021/12/06 08:11:26;;;;;;;30.33;16.83;;;3.10;91.90;;;;;;5054975;28;20415;-68
2021/12/06 08:13:56;;;;;;;33.78;17.58;;;3.10;91.90;;;;;;5051254;28;20155;-70
2021/12/06 08:16:29;;;;;;;30.85;16.58;;;3.20;92.00;;;;;;5051408;28;20017;-69
2021/12/06 08:18:54;;;;;;;;;;;3.20;92.00;;;;;;5051606;28;20017;-71
2021/12/06 08:21:22;;;;;;;31.80;17.08;;;3.20;91.90;;;;;;5051050;28;20378;-69
2021/12/06 08:23:49;;;;;;;33.03;17.35;;;3.30;91.90;;;;;;5051025;28;20033;-68
2021/12/06 08:26:19;;;;;;;31.73;16.83;;;3.30;91.90;;;;;;5058566;28;20029;-68
2021/12/06 08:28:45;;;;;;;33.63;18.67;;;3.40;91.80;;;;;;5060464;28;20033;-67
2021/12/06 08:31:12;;;;;;;31.02;17.30;;;3.40;91.80;;;;;;5073031;28;20118;-70
2021/12/06 08:33:38;;;;;;;28.75;15.80;;;3.40;91.80;;;;;;5073026;28;20020;-68
2021/12/06 08:36:06;;;;;;;30.42;16.80;;;3.40;91.80;;;;;;5070722;28;20021;-68
2021/12/06 08:38:34;;;;;;;29.25;16.13;;;3.40;91.70;;;;;;5054544;28;20487;-68
2021/12/06 08:41:03;;;;;;;29.15;15.95;;;3.40;91.60;;;;;;5073503;28;20464;-68
2021/12/06 08:43:29;;;;;;;25.77;13.85;;;3.50;91.60;;;;;;5066633;28;20509;-69
2021/12/06 08:46:03;;;;;;;26.02;13.52;;;3.50;91.70;;;;;;5065238;28;20029;-69
2021/12/06 08:48:32;;;;;;;29.33;15.30;;;3.50;91.70;;;;;;5065003;28;20052;-68
2021/12/06 08:51:00;;;;;;;27.60;13.95;;;3.60;91.60;;;;;;5069856;28;20016;-69
2021/12/06 08:53:26;;;;;;;24.90;13.68;;;3.60;91.50;;;;;;5073124;28;20035;-68
2021/12/06 08:55:53;;;;;;;24.10;12.95;;;3.50;91.60;;;;;;5075276;28;20024;-68
2021/12/06 08:58:18;;;;;;;24.80;12.93;;;3.60;91.60;;;;;;5056806;28;20033;-68
2021/12/06 09:00:45;;;;;;;24.27;13.30;;;3.60;91.60;;;;;;5064010;28;20804;-68
2021/12/06 09:03:11;;;;;;;28.05;14.40;;;3.60;91.90;;;;;;5067518;28;20788;-68
2021/12/06 09:05:44;;;;;;;21.98;12.65;;;3.60;91.50;;;;;;5068047;28;20483;-68
2021/12/06 09:08:09;;;;;;;;;;;3.70;91.50;;;;;;5070762;28;20104;-68
2021/12/06 09:10:36;;;;;;;24.80;12.65;;;3.70;91.50;;;;;;5060709;28;19996;-67
2021/12/06 09:13:04;;;;;;;24.98;12.70;;;3.70;91.60;;;;;;5063306;28;20105;-69
2021/12/06 09:15:30;;;;;;;24.77;13.13;;;3.70;91.60;;;;;;5070232;28;20070;-69
2021/12/06 09:17:56;;;;;;;28.38;15.43;;;3.80;91.60;;;;;;5068783;28;20070;-69
2021/12/06 09:20:30;;;;;;;26.05;13.48;;;3.80;91.50;;;;;;5071906;28;20034;-69
2021/12/06 09:22:57;;;;;;;25.23;13.18;;;3.80;91.50;;;;;;5070794;28;20108;-69
2021/12/06 09:25:23;;;;;;;22.95;12.35;;;3.80;91.50;;;;;;5064514;28;20402;-69
2021/12/06 09:27:49;;;;;;;21.35;11.80;;;3.80;91.50;;;;;;5072277;28;20037;-68
2021/12/06 09:30:18;;;;;;;25.60;13.45;;;3.90;91.60;;;;;;5071216;28;20641;-67
2021/12/06 09:32:44;;;;;;;27.98;14.48;;;3.90;91.50;;;;;;5072116;28;20056;-68
2021/12/06 09:35:14;;;;;;;21.52;12.55;;;3.90;91.30;;;;;;5072850;28;20035;-67
2021/12/06 09:37:40;;;;;;;23.42;12.63;;;3.90;91.40;;;;;;5072809;28;20027;-67
2021/12/06 09:40:08;;;;;;;22.98;12.70;;;3.90;91.50;;;;;;5071861;28;20033;-68
2021/12/06 09:42:36;;;;;;;22.40;12.05;;;4.00;91.50;;;;;;5071811;28;20027;-68
2021/12/06 09:45:10;;;;;;;18.98;11.40;;;4.00;91.50;;;;;;5072367;28;20028;-68
2021/12/06 09:47:36;;;;;;;19.52;11.05;;;4.00;91.50;;;;;;5058256;28;20418;-68
2021/12/06 09:50:03;;;;;;;22.55;11.73;;;4.00;91.50;;;;;;5052798;28;20104;-69
2021/12/06 09:52:29;;;;;;;19.83;11.00;;;4.10;91.40;;;;;;5052836;28;20040;-68
2021/12/06 09:54:55;;;;;;;22.40;11.60;;;4.20;91.50;;;;;;5052513;28;20025;-68
2021/12/06 09:57:23;;;;;;;17.95;9.75;;;4.20;91.50;;;;;;5052689;28;20066;-68
2021/12/06 09:59:48;;;;;;;19.17;10.60;;;4.20;91.50;;;;;;5052660;28;20025;-68
2021/12/06 10:02:18;;;;;;;19.38;10.82;;;4.20;91.40;;;;;;5052555;28;20491;-68
2021/12/06 10:04:50;;;;;;;19.75;10.25;;;4.30;91.40;;;;;;5068528;28;20048;-68
2021/12/06 10:07:17;;;;;;;17.83;10.13;;;4.30;91.40;;;;;;5052553;28;20029;-68
2021/12/06 10:09:44;;;;;;;17.60;9.85;;;4.30;91.30;;;;;;5052555;28;20025;-68
2021/12/06 10:12:11;;;;;;;18.92;10.98;;;4.30;91.30;;;;;;5052605;28;20040;-69
2021/12/06 10:14:38;;;;;;;22.52;12.43;;;4.30;91.10;;;;;;5052532;28;20021;-68
2021/12/06 10:17:05;;;;;;;21.02;11.52;;;4.40;90.90;;;;;;5052486;28;20078;-69
2021/12/06 10:19:31;;;;;;;18.17;10.35;;;4.30;91.00;;;;;;5052499;28;20472;-67
2021/12/06 10:21:57;;;;;;;19.05;10.70;;;4.30;91.10;;;;;;5051199;28;20384;-68
2021/12/06 10:24:27;;;;;;;20.85;11.20;;;4.30;91.10;;;;;;5068086;28;20039;-68
2021/12/06 10:27:10;;;;;;;21.40;11.70;;;4.40;91.00;;;;;;5072089;28;20039;-68
2021/12/06 10:29:44;;;;;;;17.92;10.35;;;4.30;90.90;;;;;;5072057;28;20109;-69
2021/12/06 10:32:19;;;;;;;17.48;9.85;;;4.30;91.10;;;;;;5072801;28;20020;-67
2021/12/06 10:34:57;;;;;;;17.02;9.60;;;4.30;91.10;;;;;;5071894;28;20017;-68
2021/12/06 10:37:32;;;;;;;18.27;10.88;;;4.30;91.10;;;;;;5071914;28;20021;-68
2021/12/06 10:39:58;;;;;;;17.23;10.30;;;4.30;91.10;;;;;;5067217;28;20031;-67
2021/12/06 10:42:34;;;;;;;17.02;10.02;;;4.40;91.10;;;;;;5051942;28;20025;-69
2021/12/06 10:45:14;;;;;;;18.30;10.40;;;4.40;91.00;;;;;;5051890;28;20028;-69
2021/12/06 10:47:40;;;;;;;18.45;10.25;;;4.30;91.00;;;;;;5052175;28;20060;-68
2021/12/06 10:50:19;;;;;;;18.10;9.98;;;4.40;91.00;;;;;;5051796;28;20021;-68
2021/12/06 10:52:56;;;;;;;14.70;8.75;;;4.30;91.20;;;;;;5051205;28;20053;-67
2021/12/06 10:55:26;;;;;;;14.98;8.55;;;4.40;91.10;;;;;;5051689;28;20021;-67
2021/12/06 10:57:54;;;;;;;15.73;9.30;;;4.30;91.00;;;;;;5051779;28;20100;-68
2021/12/06 11:00:49;;;;;;;14.27;8.27;;;4.30;90.90;;;;;;5051725;28;20021;-69
2021/12/06 11:03:18;;;;;;;14.25;7.82;;;4.30;90.90;;;;;;5049860;28;20029;-69
2021/12/06 11:05:44;;;;;;;12.52;7.32;;;4.30;90.90;;;;;;5050147;28;20423;-68
2021/12/06 11:08:12;;;;;;;11.32;6.78;;;4.30;90.90;;;;;;5051527;28;20035;-67
2021/12/06 11:10:54;;;;;;;11.40;6.57;;;4.30;90.90;;;;;;5051524;28;20032;-69
2021/12/06 11:13:29;;;;;;;11.02;6.20;;;4.20;91.20;;;;;;5051520;28;20025;-68
2021/12/06 11:16:00;;;;;;;10.52;5.65;;;4.20;91.00;;;;;;5051516;28;20361;-68
2021/12/06 11:18:48;;;;;;;10.00;5.22;;;4.20;90.90;;;;;;5051372;28;20021;-69
2021/12/06 11:21:31;;;;;;;8.48;4.93;;;4.20;91.00;;;;;;5051463;28;20496;-68
2021/12/06 11:24:00;;;;;;;10.55;5.80;;;4.10;91.10;;;;;;5051341;28;20036;-69
2021/12/06 11:26:26;;;;;;;9.73;5.18;;;4.10;91.00;;;;;;5051061;28;20020;-69
2021/12/06 11:28:52;;;;;;;9.60;5.28;;;4.10;91.10;;;;;;5051296;28;20460;-69
2021/12/06 11:31:19;;;;;;;10.65;5.93;;;4.10;91.10;;;;;;5051028;28;20033;-69
2021/12/06 11:34:00;;;;;;;10.27;5.55;;;4.10;91.20;;;;;;5059816;28;20036;-69
2021/12/06 11:36:27;;;;;;;9.82;4.88;;;4.10;91.20;;;;;;5051099;28;20092;-69
2021/12/06 11:39:13;;;;;;;10.27;5.68;;;4.10;91.30;;;;;;5049717;28;20021;-68
2021/12/06 11:41:42;;;;;;;9.48;5.10;;;4.10;91.30;;;;;;5051154;28;20029;-68
2021/12/06 11:44:28;;;;;;;11.05;5.53;;;4.10;91.20;;;;;;5051202;28;20407;-69
2021/12/06 11:47:10;;;;;;;10.23;5.82;;;4.10;91.20;;;;;;5051141;28;20045;-68
2021/12/06 11:49:37;;;;;;;10.98;5.82;;;4.10;91.20;;;;;;5060691;28;20020;-69
2021/12/06 11:52:08;;;;;;;11.27;6.40;;;4.10;91.20;;;;;;5050048;28;20049;-69
2021/12/06 11:54:39;;;;;;;11.85;6.20;;;4.10;91.20;;;;;;5051032;28;20353;-68
2021/12/06 11:57:20;;;;;;;13.32;7.20;;;4.10;91.20;;;;;;5051256;28;20017;-69
2021/12/06 11:59:49;;;;;;;12.27;6.70;;;4.10;91.30;;;;;;5051185;28;20021;-68
2021/12/06 12:02:15;;;;;;;12.13;7.13;;;4.00;91.40;;;;;;5050958;28;20353;-69
2021/12/06 12:04:41;;;;;;;10.30;6.30;;;4.00;91.40;;;;;;5054473;28;20027;-69
2021/12/06 12:07:07;;;;;;;11.00;6.82;;;4.00;91.50;;;;;;5054802;28;20036;-69
2021/12/06 12:09:35;;;;;;;11.10;5.95;;;4.10;91.50;;;;;;5054779;28;20024;-68
2021/12/06 12:12:15;;;;;;;10.85;6.15;;;4.10;91.50;;;;;;5054705;28;20102;-68
2021/12/06 12:14:49;;;;;;;10.80;6.13;;;4.10;91.50;;;;;;5054713;28;20041;-68
2021/12/06 12:17:17;;;;;;;10.02;5.47;;;4.10;91.50;;;;;;5054764;28;20021;-68
2021/12/06 12:19:45;;;;;;;11.55;5.85;;;4.10;91.50;;;;;;5054614;28;20109;-68
2021/12/06 12:22:13;;;;;;;10.32;6.00;;;4.10;91.60;;;;;;5054484;28;20033;-68
2021/12/06 12:24:43;;;;;;;11.02;6.22;;;4.10;91.60;;;;;;5054443;28;20082;-68
2021/12/06 12:29:50;;;;;;;11.63;6.63;;;4.10;91.50;;;;;;5054233;28;20070;-68
2021/12/06 12:32:16;;;;;;;12.40;6.88;;;4.10;91.50;;;;;;5054202;28;20029;-68
2021/12/06 12:34:47;;;;;;;12.68;6.80;;;4.10;91.60;;;;;;5052747;28;20444;-68
2021/12/06 12:37:15;;;;;;;14.60;8.30;;;4.00;91.60;;;;;;5054088;28;20032;-67
2021/12/06 12:39:41;;;;;;;13.65;7.30;;;4.10;91.60;;;;;;5054151;28;20051;-69
2021/12/06 12:42:09;;;;;;;13.43;7.43;;;4.00;91.60;;;;;;5054198;28;20400;-69
2021/12/06 12:44:47;;;;;;;14.90;7.95;;;4.00;91.70;;;;;;5054167;28;20033;-68
2021/12/06 12:47:29;;;;;;;15.07;7.32;;;4.00;91.80;;;;;;5054028;28;20083;-69
2021/12/06 12:50:14;;;;;;;15.50;8.05;;;4.00;91.80;;;;;;5053897;28;20032;-68
2021/12/06 12:52:47;;;;;;;13.95;7.43;;;4.00;91.80;;;;;;5053795;28;20116;-68
2021/12/06 12:55:30;;;;;;;13.82;7.85;;;4.00;91.80;;;;;;5053801;28;20017;-67
2021/12/06 12:58:13;;;;;;;15.55;7.93;;;4.00;91.90;;;;;;5054027;28;20028;-68
2021/12/06 13:01:07;;;;;;;13.15;7.25;;;4.00;91.90;;;;;;5053716;28;20032;-69
2021/12/06 13:03:39;;;;;;;14.68;7.93;;;4.00;92.00;;;;;;5053889;28;20448;-68
2021/12/06 13:06:24;;;;;;;16.83;8.68;;;3.90;92.00;;;;;;5053604;28;20052;-69
2021/12/06 13:08:55;;;;;;;14.95;8.25;;;3.90;92.00;;;;;;5053453;28;20104;-67